Time;durP1;ratioP1;P1;durP2;ratioP2;P2;SDS_P1;SDS_P2;PMS_P1;PMS_P2;Temp;Humidity;BMP_temperature;BMP_pressure;BME280_temperature;BME280_humidity;BME280_pressure;Samples;Min_cycle;Max_cycle;Signal;HPM_P1;HPM_P2
2023/07/01 00:00:14;;;;;;;;;;;;;;;;;;4894294;29;20656;-78
2023/07/01 00:02:52;;;;;;;;;;;;;;;;;;4912548;29;19927;-78
2023/07/01 00:05:20;;;;;;;;;;;;;;;;;;4912411;29;19931;-78
2023/07/01 00:07:53;;;;;;;;;;;;;;;;;;4903947;29;19935;-83
2023/07/01 00:10:20;;;;;;;;;;;;;;;;;;4897160;29;19935;-82
2023/07/01 00:12:48;;;;;;;;;;;;;;;;;;4898604;29;19931;-83
2023/07/01 00:15:15;;;;;;;;;;;;;;;;;;4912017;29;19927;-82
2023/07/01 00:17:43;;;;;;;;;;;;;;;;;;4894974;29;20329;-81
2023/07/01 00:20:10;;;;;;;;;;;;;;;;;;4912384;29;19927;-80
2023/07/01 00:22:38;;;;;;;;;;;;;;;;;;4912180;29;20406;-81
2023/07/01 00:25:05;;;;;;;;;;;;;;;;;;4896454;29;19928;-82
2023/07/01 00:27:33;;;;;;;;;;;;;;;;;;4896531;29;20111;-81
2023/07/01 00:30:00;;;;;;;;;;;;;;;;;;4887213;29;20293;-80
2023/07/01 00:32:28;;;;;;;;;;;;;;;;;;4893673;29;19931;-80
2023/07/01 00:34:56;;;;;;;;;;;;;;;;;;4893666;29;19928;-80
2023/07/01 00:37:23;;;;;;;;;;;;;;;;;;4912341;29;20838;-79
2023/07/01 00:39:51;;;;;;;;;;;;;;;;;;4906845;29;19928;-81
2023/07/01 00:42:23;;;;;;;;;;;;;;;;;;4895131;29;20411;-79
2023/07/01 00:44:51;;;;;;;;;;;;;;;;;;4896437;29;19935;-78
2023/07/01 00:47:18;;;;;;;;;;;;;;;;;;4896215;29;19934;-79
2023/07/01 00:49:46;;;;;;;;;;;;;;;;;;4895897;29;20401;-79
2023/07/01 00:52:13;;;;;;;;;;;;;;;;;;4911434;29;19935;-79
2023/07/01 00:54:41;;;;;;;;;;;;;;;;;;4911235;29;20303;-78
2023/07/01 00:57:09;;;;;;;;;;;;;;;;;;4899763;29;19927;-83
2023/07/01 00:59:41;;;;;;;;;;;;;;;;;;4911584;29;20316;-79
2023/07/01 01:02:14;;;;;;;;;;;;;;;;;;4899367;29;19927;-78
2023/07/01 01:04:44;;;;;;;;;;;;;;;;;;4911758;29;20407;-79
2023/07/01 01:07:11;;;;;;;;;;;;;;;;;;4905799;29;19950;-81
2023/07/01 01:09:39;;;;;;;;;;;;;;;;;;4911846;29;19935;-80
2023/07/01 01:12:06;;;;;;;;;;;;;;;;;;4904739;29;19928;-81
2023/07/01 01:14:34;;;;;;;;;;;;;;;;;;4912007;29;20292;-80
2023/07/01 01:17:04;;;;;;;;;;;;;;;;;;4911353;29;19928;-80
2023/07/01 01:19:36;;;;;;;;;;;;;;;;;;4911248;29;19932;-79
2023/07/01 01:22:04;;;;;;;;;;;;;;;;;;4911144;29;19935;-78
2023/07/01 01:24:31;;;;;;;;;;;;;;;;;;4895688;29;19931;-79
2023/07/01 01:26:59;;;;;;;;;;;;;;;;;;4896952;29;19932;-79
2023/07/01 01:29:27;;;;;;;;;;;;;;;;;;4894662;29;19943;-79
2023/07/01 01:31:54;;;;;;;;;;;;;;;;;;4911251;29;19942;-81
2023/07/01 01:34:27;;;;;;;;;;;;;;;;;;4898733;29;19931;-80
2023/07/01 01:36:54;;;;;;;;;;;;;;;;;;4899539;29;20304;-81
2023/07/01 01:39:22;;;;;;;;;;;;;;;;;;4895278;29;19935;-81
2023/07/01 01:41:50;;;;;;;;;;;;;;;;;;4905384;29;19934;-79
2023/07/01 01:44:18;;;;;;;;;;;;;;;;;;4911608;29;19927;-79
2023/07/01 01:46:45;;;;;;;;;;;;;;;;;;4910771;29;19932;-77
2023/07/01 01:49:13;;;;;;;;;;;;;;;;;;4897946;29;19933;-79
2023/07/01 01:51:40;;;;;;;;;;;;;;;;;;4910978;29;19939;-79
2023/07/01 01:54:08;;;;;;;;;;;;;;;;;;4910980;29;19935;-79
2023/07/01 01:56:36;;;;;;;;;;;;;;;;;;4910480;29;20392;-79
2023/07/01 01:59:03;;;;;;;;;;;;;;;;;;4910581;29;19927;-80
2023/07/01 02:01:37;;;;;;;;;;;;;;;;;;4894557;29;19940;-78
2023/07/01 02:04:04;;;;;;;;;;;;;;;;;;4891513;29;19935;-79
2023/07/01 02:06:34;;;;;;;;;;;;;;;;;;4895031;29;19931;-79
2023/07/01 02:09:03;;;;;;;;;;;;;;;;;;4910805;29;19928;-79
2023/07/01 02:11:31;;;;;;;;;;;;;;;;;;4910821;29;19928;-79
2023/07/01 02:13:59;;;;;;;;;;;;;;;;;;4910412;29;19938;-81
2023/07/01 02:16:26;;;;;;;;;;;;;;;;;;4899624;29;19927;-81
2023/07/01 02:18:54;;;;;;;;;;;;;;;;;;4903604;29;19943;-79
2023/07/01 02:21:27;;;;;;;;;;;;;;;;;;4896351;29;19931;-79
2023/07/01 02:23:55;;;;;;;;;;;;;;;;;;4896243;29;19951;-79
2023/07/01 02:26:22;;;;;;;;;;;;;;;;;;4907439;29;19927;-80
2023/07/01 02:28:50;;;;;;;;;;;;;;;;;;4903371;29;19928;-79
2023/07/01 02:31:18;;;;;;;;;;;;;;;;;;4910236;29;20414;-78
2023/07/01 02:33:46;;;;;;;;;;;;;;;;;;4905991;29;19928;-79
2023/07/01 02:36:13;;;;;;;;;;;;;;;;;;4907102;29;19928;-80
2023/07/01 02:38:41;;;;;;;;;;;;;;;;;;4910457;29;19927;-80
2023/07/01 02:41:08;;;;;;;;;;;;;;;;;;4894652;29;19934;-79
2023/07/01 02:43:36;;;;;;;;;;;;;;;;;;4888765;29;20645;-80
2023/07/01 02:46:03;;;;;;;;;;;;;;;;;;4885134;29;19935;-80
2023/07/01 02:48:31;;;;;;;;;;;;;;;;;;4906306;29;19986;-81
2023/07/01 02:50:58;;;;;;;;;;;;;;;;;;4881453;29;19948;-78
2023/07/01 02:53:31;;;;;;;;;;;;;;;;;;4886739;29;20315;-84
2023/07/01 02:55:59;;;;;;;;;;;;;;;;;;4905970;29;19938;-82
2023/07/01 02:58:27;;;;;;;;;;;;;;;;;;4893822;29;19935;-80
2023/07/01 03:00:55;;;;;;;;;;;;;;;;;;4895761;29;19935;-80
2023/07/01 03:03:22;;;;;;;;;;;;;;;;;;4895877;29;19927;-79
2023/07/01 03:05:50;;;;;;;;;;;;;;;;;;4894287;29;19947;-80
2023/07/01 03:08:17;;;;;;;;;;;;;;;;;;4909738;29;19927;-80
2023/07/01 03:10:45;;;;;;;;;;;;;;;;;;4910024;29;19927;-80
2023/07/01 03:13:12;;;;;;;;;;;;;;;;;;4909745;29;20361;-79
2023/07/01 03:15:40;;;;;;;;;;;;;;;;;;4910369;29;19931;-80
2023/07/01 03:18:08;;;;;;;;;;;;;;;;;;4888363;29;19946;-79
2023/07/01 03:20:36;;;;;;;;;;;;;;;;;;4911900;29;19931;-79
2023/07/01 03:23:03;;;;;;;;;;;;;;;;;;4910268;29;19938;-79
2023/07/01 03:25:36;;;;;;;;;;;;;;;;;;4910231;29;19938;-79
2023/07/01 03:28:04;;;;;;;;;;;;;;;;;;4913539;29;20424;-79
2023/07/01 03:30:36;;;;;;;;;;;;;;;;;;4906651;29;19927;-82
2023/07/01 03:33:06;;;;;;;;;;;;;;;;;;4889274;29;19973;-82
2023/07/01 03:35:33;;;;;;;;;;;;;;;;;;4913309;29;19938;-79
2023/07/01 03:38:06;;;;;;;;;;;;;;;;;;4906660;29;20419;-78
2023/07/01 03:40:33;;;;;;;;;;;;;;;;;;4883978;29;19928;-80
2023/07/01 03:43:01;;;;;;;;;;;;;;;;;;4899032;29;19934;-80
2023/07/01 03:45:28;;;;;;;;;;;;;;;;;;4913146;29;20300;-79
2023/07/01 03:47:56;;;;;;;;;;;;;;;;;;4913544;29;19938;-79
2023/07/01 03:50:24;;;;;;;;;;;;;;;;;;4913077;29;19935;-81
2023/07/01 03:52:51;;;;;;;;;;;;;;;;;;4913140;29;20731;-79
2023/07/01 03:55:19;;;;;;;;;;;;;;;;;;4898834;29;19927;-80
2023/07/01 03:57:51;;;;;;;;;;;;;;;;;;4911419;29;19932;-79
2023/07/01 04:00:19;;;;;;;;;;;;;;;;;;4898955;29;19927;-79
2023/07/01 04:02:46;;;;;;;;;;;;;;;;;;4909081;29;20381;-79
2023/07/01 04:05:14;;;;;;;;;;;;;;;;;;4912205;29;20344;-82
2023/07/01 04:07:41;;;;;;;;;;;;;;;;;;4910869;29;19935;-82
2023/07/01 04:10:09;;;;;;;;;;;;;;;;;;4913070;29;19927;-82
2023/07/01 04:12:37;;;;;;;;;;;;;;;;;;4910603;29;19934;-79
2023/07/01 04:15:09;;;;;;;;;;;;;;;;;;4905401;29;19932;-80
2023/07/01 04:17:37;;;;;;;;;;;;;;;;;;4910211;29;19928;-79
2023/07/01 04:20:06;;;;;;;;;;;;;;;;;;4898091;29;19931;-79
2023/07/01 04:22:33;;;;;;;;;;;;;;;;;;4891796;29;20284;-79
2023/07/01 04:25:01;;;;;;;;;;;;;;;;;;4898292;29;19931;-81
2023/07/01 04:27:28;;;;;;;;;;;;;;;;;;4890198;29;20415;-79
2023/07/01 04:29:56;;;;;;;;;;;;;;;;;;4894760;29;19927;-81
2023/07/01 04:32:24;;;;;;;;;;;;;;;;;;4912070;29;19928;-79
2023/07/01 04:34:51;;;;;;;;;;;;;;;;;;4896949;29;19942;-80
2023/07/01 04:37:19;;;;;;;;;;;;;;;;;;4893297;29;19939;-79
2023/07/01 04:39:46;;;;;;;;;;;;;;;;;;4911642;29;19931;-80
2023/07/01 04:42:14;;;;;;;;;;;;;;;;;;4896513;29;20288;-80
2023/07/01 04:44:42;;;;;;;;;;;;;;;;;;4912110;29;19931;-79
2023/07/01 04:47:09;;;;;;;;;;;;;;;;;;4912233;29;19931;-79
2023/07/01 04:49:37;;;;;;;;;;;;;;;;;;4902900;29;19931;-80
2023/07/01 04:52:04;;;;;;;;;;;;;;;;;;4904451;29;19931;-80
2023/07/01 04:54:32;;;;;;;;;;;;;;;;;;4896044;29;19938;-79
2023/07/01 04:56:59;;;;;;;;;;;;;;;;;;4912159;29;19938;-80
2023/07/01 04:59:27;;;;;;;;;;;;;;;;;;4900313;29;19938;-79
2023/07/01 05:01:54;;;;;;;;;;;;;;;;;;4907857;29;19931;-79
2023/07/01 05:04:22;;;;;;;;;;;;;;;;;;4896362;29;19932;-79
2023/07/01 05:06:51;;;;;;;;;;;;;;;;;;4897664;29;20891;-80
2023/07/01 05:09:18;;;;;;;;;;;;;;;;;;4911420;29;20573;-82
2023/07/01 05:11:46;;;;;;;;;;;;;;;;;;4894526;29;19927;-82
2023/07/01 05:14:13;;;;;;;;;;;;;;;;;;4911351;29;19927;-82
2023/07/01 05:16:41;;;;;;;;;;;;;;;;;;4897198;29;19932;-83
2023/07/01 05:19:09;;;;;;;;;;;;;;;;;;4894062;29;19927;-78
2023/07/01 05:21:36;;;;;;;;;;;;;;;;;;4897084;29;19934;-79
2023/07/01 05:24:04;;;;;;;;;;;;;;;;;;4897120;29;19935;-79
2023/07/01 05:26:32;;;;;;;;;;;;;;;;;;4894581;29;19936;-79
2023/07/01 05:28:59;;;;;;;;;;;;;;;;;;4895778;29;19934;-81
2023/07/01 05:31:27;;;;;;;;;;;;;;;;;;4905266;29;19932;-79
2023/07/01 05:33:54;;;;;;;;;;;;;;;;;;4912524;29;19932;-79
2023/07/01 05:36:22;;;;;;;;;;;;;;;;;;4896950;29;19935;-79
2023/07/01 05:38:49;;;;;;;;;;;;;;;;;;4910072;29;19947;-80
2023/07/01 05:41:17;;;;;;;;;;;;;;;;;;4905276;29;20609;-80
2023/07/01 05:43:44;;;;;;;;;;;;;;;;;;4907893;29;19943;-80
2023/07/01 05:46:12;;;;;;;;;;;;;;;;;;4893842;29;19936;-80
2023/07/01 05:48:39;;;;;;;;;;;;;;;;;;4911516;29;19940;-78
2023/07/01 05:51:07;;;;;;;;;;;;;;;;;;4895345;29;19954;-79
2023/07/01 05:53:35;;;;;;;;;;;;;;;;;;4909905;29;20297;-79
2023/07/01 05:56:02;;;;;;;;;;;;;;;;;;4890177;29;19936;-79
2023/07/01 05:58:30;;;;;;;;;;;;;;;;;;4909465;29;20337;-79
2023/07/01 06:00:57;;;;;;;;;;;;;;;;;;4889369;29;19961;-79
2023/07/01 06:03:25;;;;;;;;;;;;;;;;;;4910418;29;20328;-79
2023/07/01 06:05:52;;;;;;;;;;;;;;;;;;4895182;29;20396;-79
2023/07/01 06:08:20;;;;;;;;;;;;;;;;;;4898498;29;19932;-78
2023/07/01 06:10:47;;;;;;;;;;;;;;;;;;4895047;29;19931;-81
2023/07/01 06:13:15;;;;;;;;;;;;;;;;;;4896506;29;19938;-80
2023/07/01 06:15:43;;;;;;;;;;;;;;;;;;4913450;29;19942;-79
2023/07/01 06:18:10;;;;;;;;;;;;;;;;;;4893804;29;20707;-80
2023/07/01 06:20:38;;;;;;;;;;;;;;;;;;4910373;29;19936;-79
2023/07/01 06:23:10;;;;;;;;;;;;;;;;;;4890093;29;20578;-80
2023/07/01 06:25:38;;;;;;;;;;;;;;;;;;4895643;29;19942;-80
2023/07/01 06:28:10;;;;;;;;;;;;;;;;;;4901588;29;20700;-83
2023/07/01 06:30:38;;;;;;;;;;;;;;;;;;4891557;29;19935;-80
2023/07/01 06:33:08;;;;;;;;;;;;;;;;;;4894425;29;20666;-80
2023/07/01 06:35:36;;;;;;;;;;;;;;;;;;4895945;29;19927;-80
2023/07/01 06:38:03;;;;;;;;;;;;;;;;;;4909627;29;20384;-79
2023/07/01 06:40:31;;;;;;;;;;;;;;;;;;4908786;29;19935;-80
2023/07/01 06:42:58;;;;;;;;;;;;;;;;;;4904259;29;20285;-78
2023/07/01 06:45:31;;;;;;;;;;;;;;;;;;4893514;29;19990;-80
2023/07/01 06:47:58;;;;;;;;;;;;;;;;;;4910111;29;19942;-82
2023/07/01 06:50:26;;;;;;;;;;;;;;;;;;4894577;29;19931;-79
2023/07/01 06:52:53;;;;;;;;;;;;;;;;;;4897248;29;20388;-78
2023/07/01 06:55:21;;;;;;;;;;;;;;;;;;4909615;29;19931;-79
2023/07/01 06:57:48;;;;;;;;;;;;;;;;;;4909697;29;20411;-78
2023/07/01 07:00:17;;;;;;;;;;;;;;;;;;4909760;29;19932;-79
2023/07/01 07:02:44;;;;;;;;;;;;;;;;;;4909590;29;20292;-81
2023/07/01 07:05:12;;;;;;;;;;;;;;;;;;4895444;29;19935;-81
2023/07/01 07:07:40;;;;;;;;;;;;;;;;;;4893112;29;19927;-80
2023/07/01 07:10:07;;;;;;;;;;;;;;;;;;4904330;29;19928;-80
2023/07/01 07:12:35;;;;;;;;;;;;;;;;;;4908205;29;20396;-80
2023/07/01 07:15:02;;;;;;;;;;;;;;;;;;4894758;29;19938;-79
2023/07/01 07:17:30;;;;;;;;;;;;;;;;;;4906817;29;19928;-79
2023/07/01 07:19:57;;;;;;;;;;;;;;;;;;4889912;29;19936;-78
2023/07/01 07:22:25;;;;;;;;;;;;;;;;;;4902026;29;19928;-80
2023/07/01 07:24:52;;;;;;;;;;;;;;;;;;4891820;29;19934;-81
2023/07/01 07:27:25;;;;;;;;;;;;;;;;;;4901604;29;19931;-80
2023/07/01 07:29:52;;;;;;;;;;;;;;;;;;4895623;29;19938;-80
2023/07/01 07:32:20;;;;;;;;;;;;;;;;;;4905928;29;19932;-80
2023/07/01 07:34:48;;;;;;;;;;;;;;;;;;4896788;29;19976;-81
2023/07/01 07:37:15;;;;;;;;;;;;;;;;;;4907925;29;19927;-81
2023/07/01 07:39:43;;;;;;;;;;;;;;;;;;4905608;29;19931;-80
2023/07/01 07:42:10;;;;;;;;;;;;;;;;;;4909180;29;19927;-80
2023/07/01 07:44:38;;;;;;;;;;;;;;;;;;4896020;29;20304;-80
2023/07/01 07:47:06;;;;;;;;;;;;;;;;;;4889228;29;19928;-80
2023/07/01 07:49:33;;;;;;;;;;;;;;;;;;4908055;29;19931;-80
2023/07/01 07:52:01;;;;;;;;;;;;;;;;;;4895633;29;19928;-80
2023/07/01 07:54:34;;;;;;;;;;;;;;;;;;4909292;29;20312;-79
2023/07/01 07:57:01;;;;;;;;;;;;;;;;;;4897839;29;19931;-78
2023/07/01 07:59:29;;;;;;;;;;;;;;;;;;4892628;29;19942;-78
2023/07/01 08:02:01;;;;;;;;;;;;;;;;;;4893226;29;19927;-81
2023/07/01 08:04:29;;;;;;;;;;;;;;;;;;4909452;29;19928;-78
2023/07/01 08:06:56;;;;;;;;;;;;;;;;;;4896367;29;20269;-79
2023/07/01 08:09:24;;;;;;;;;;;;;;;;;;4895516;29;20296;-83
2023/07/01 08:11:51;;;;;;;;;;;;;;;;;;4893085;29;20407;-78
2023/07/01 08:14:19;;;;;;;;;;;;;;;;;;4904627;29;19928;-78
2023/07/01 08:16:47;;;;;;;;;;;;;;;;;;4895968;29;19927;-79
2023/07/01 08:19:14;;;;;;;;;;;;;;;;;;4909603;29;19931;-80
2023/07/01 08:21:42;;;;;;;;;;;;;;;;;;4909917;29;20482;-78
2023/07/01 08:24:09;;;;;;;;;;;;;;;;;;4905862;29;20371;-79
2023/07/01 08:26:37;;;;;;;;;;;;;;;;;;4896821;29;19943;-78
2023/07/01 08:29:04;;;;;;;;;;;;;;;;;;4890058;29;19932;-78
2023/07/01 08:31:32;;;;;;;;;;;;;;;;;;4910296;29;19951;-77
2023/07/01 08:34:00;;;;;;;;;;;;;;;;;;4911146;29;20679;-77
2023/07/01 08:36:27;;;;;;;;;;;;;;;;;;4908616;29;19935;-78
2023/07/01 08:38:55;;;;;;;;;;;;;;;;;;4892995;29;19942;-78
2023/07/01 08:41:23;;;;;;;;;;;;;;;;;;4910266;29;20380;-78
2023/07/01 08:43:50;;;;;;;;;;;;;;;;;;4909062;29;20392;-78
2023/07/01 08:46:19;;;;;;;;;;;;;;;;;;4890404;29;19928;-77
2023/07/01 08:48:46;;;;;;;;;;;;;;;;;;4896192;29;20404;-80
2023/07/01 08:51:14;;;;;;;;;;;;;;;;;;4908560;29;19939;-82
2023/07/01 08:53:41;;;;;;;;;;;;;;;;;;4896775;29;20466;-81
2023/07/01 08:56:09;;;;;;;;;;;;;;;;;;4887503;29;19927;-82
2023/07/01 08:58:36;;;;;;;;;;;;;;;;;;4908279;29;19936;-81
2023/07/01 09:01:05;;;;;;;;;;;;;;;;;;4896959;29;20501;-83
2023/07/01 09:03:35;;;;;;;;;;;;;;;;;;4891384;29;19928;-78
2023/07/01 09:06:02;;;;;;;;;;;;;;;;;;4891199;29;19928;-82
2023/07/01 09:08:30;;;;;;;;;;;;;;;;;;4893256;29;19935;-82
2023/07/01 09:10:57;;;;;;;;;;;;;;;;;;4908525;29;20288;-82
2023/07/01 09:13:26;;;;;;;;;;;;;;;;;;4899612;29;20384;-82
2023/07/01 09:15:53;;;;;;;;;;;;;;;;;;4892135;29;19931;-82
2023/07/01 09:18:21;;;;;;;;;;;;;;;;;;4905173;29;19939;-80
2023/07/01 09:20:49;;;;;;;;;;;;;;;;;;4890044;29;19936;-81
2023/07/01 09:23:17;;;;;;;;;;;;;;;;;;4902189;29;19943;-81
2023/07/01 09:25:44;;;;;;;;;;;;;;;;;;4894154;29;19931;-81
2023/07/01 09:28:12;;;;;;;;;;;;;;;;;;4903828;29;19935;-87
2023/07/01 09:30:40;;;;;;;;;;;;;;;;;;4906248;29;20400;-84
2023/07/01 09:33:07;;;;;;;;;;;;;;;;;;4885905;29;19950;-84
2023/07/01 09:35:35;;;;;;;;;;;;;;;;;;4893251;29;19942;-82
2023/07/01 09:38:02;;;;;;;;;;;;;;;;;;4898715;29;19931;-86
2023/07/01 09:40:32;;;;;;;;;;;;;;;;;;4881774;29;19935;-84
2023/07/01 09:42:59;;;;;;;;;;;;;;;;;;4884415;29;20391;-83
2023/07/01 09:45:27;;;;;;;;;;;;;;;;;;4878539;29;20100;-84
2023/07/01 09:47:54;;;;;;;;;;;;;;;;;;4898547;29;19935;-80
2023/07/01 09:50:22;;;;;;;;;;;;;;;;;;4879716;29;20364;-81
2023/07/01 09:52:50;;;;;;;;;;;;;;;;;;4873549;29;20365;-79
2023/07/01 09:55:17;;;;;;;;;;;;;;;;;;4874831;29;19935;-80
2023/07/01 09:57:50;;;;;;;;;;;;;;;;;;4877480;29;20557;-81
2023/07/01 10:00:17;;;;;;;;;;;;;;;;;;4892370;29;19935;-82
2023/07/01 10:02:50;;;;;;;;;;;;;;;;;;4881076;29;19956;-82
2023/07/01 10:05:22;;;;;;;;;;;;;;;;;;4881232;29;19935;-81
2023/07/01 10:07:50;;;;;;;;;;;;;;;;;;4879615;29;19950;-82
2023/07/01 10:10:23;;;;;;;;;;;;;;;;;;4871259;29;19935;-81
2023/07/01 10:12:57;;;;;;;;;;;;;;;;;;4883817;29;20555;-81
2023/07/01 10:15:30;;;;;;;;;;;;;;;;;;4875580;29;19935;-81
2023/07/01 10:17:58;;;;;;;;;;;;;;;;;;4878676;29;20300;-84
2023/07/01 10:20:25;;;;;;;;;;;;;;;;;;4901380;29;20777;-84
2023/07/01 10:22:53;;;;;;;;;;;;;;;;;;4897204;29;19935;-82
2023/07/01 10:25:21;;;;;;;;;;;;;;;;;;4882269;29;19942;-83
2023/07/01 10:27:54;;;;;;;;;;;;;;;;;;4876938;29;19935;-81
2023/07/01 10:30:22;;;;;;;;;;;;;;;;;;4867877;29;20091;-78
2023/07/01 10:32:50;;;;;;;;;;;;;;;;;;4866036;29;20355;-81
2023/07/01 10:35:17;;;;;;;;;;;;;;;;;;4872075;29;20439;-79
2023/07/01 10:37:45;;;;;;;;;;;;;;;;;;4894078;29;19931;-80
2023/07/01 10:40:12;;;;;;;;;;;;;;;;;;4876362;29;19935;-79
2023/07/01 10:42:40;;;;;;;;;;;;;;;;;;4878768;29;21169;-80
2023/07/01 10:45:12;;;;;;;;;;;;;;;;;;4880922;29;19935;-86
2023/07/01 10:47:42;;;;;;;;;;;;;;;;;;4875109;29;19935;-81
2023/07/01 10:50:10;;;;;;;;;;;;;;;;;;4874459;29;20607;-84
2023/07/01 10:52:38;;;;;;;;;;;;;;;;;;4882092;29;19935;-82
2023/07/01 10:55:05;;;;;;;;;;;;;;;;;;4897058;29;19977;-82
2023/07/01 10:57:38;;;;;;;;;;;;;;;;;;4878031;29;19935;-79
2023/07/01 11:00:06;;;;;;;;;;;;;;;;;;4890185;29;19958;-79
2023/07/01 11:02:39;;;;;;;;;;;;;;;;;;4877302;29;20022;-80
2023/07/01 11:05:07;;;;;;;;;;;;;;;;;;4871109;29;20409;-80
2023/07/01 11:07:41;;;;;;;;;;;;;;;;;;4875640;29;19942;-81
2023/07/01 11:10:08;;;;;;;;;;;;;;;;;;4895116;29;19935;-81
2023/07/01 11:12:36;;;;;;;;;;;;;;;;;;4895219;29;19943;-83
2023/07/01 11:15:09;;;;;;;;;;;;;;;;;;4879932;29;20364;-80
2023/07/01 11:17:36;;;;;;;;;;;;;;;;;;4871692;29;19951;-81
2023/07/01 11:20:04;;;;;;;;;;;;;;;;;;4889846;29;20309;-81
2023/07/01 11:22:32;;;;;;;;;;;;;;;;;;4875246;29;19946;-80
2023/07/01 11:25:04;;;;;;;;;;;;;;;;;;4873704;29;19935;-83
2023/07/01 11:27:32;;;;;;;;;;;;;;;;;;4875308;29;19936;-81
2023/07/01 11:30:05;;;;;;;;;;;;;;;;;;4879205;29;19935;-82
2023/07/01 11:32:32;;;;;;;;;;;;;;;;;;4894816;29;19959;-80
2023/07/01 11:35:00;;;;;;;;;;;;;;;;;;4880421;29;19935;-80
2023/07/01 11:37:28;;;;;;;;;;;;;;;;;;4887499;29;19942;-79
2023/07/01 11:40:01;;;;;;;;;;;;;;;;;;4881764;29;19935;-85
2023/07/01 11:42:30;;;;;;;;;;;;;;;;;;4901012;29;19935;-80
2023/07/01 11:44:57;;;;;;;;;;;;;;;;;;4901439;29;19936;-80
2023/07/01 11:47:25;;;;;;;;;;;;;;;;;;4883592;29;19943;-82
2023/07/01 11:49:52;;;;;;;;;;;;;;;;;;4883013;29;20772;-81
2023/07/01 11:52:20;;;;;;;;;;;;;;;;;;4885895;29;19935;-84
2023/07/01 11:54:47;;;;;;;;;;;;;;;;;;4884685;29;20675;-82
2023/07/01 11:57:15;;;;;;;;;;;;;;;;;;4886412;29;19935;-83
2023/07/01 11:59:43;;;;;;;;;;;;;;;;;;4886331;29;20749;-84
2023/07/01 12:02:10;;;;;;;;;;;;;;;;;;4886053;29;20372;-81
2023/07/01 12:04:43;;;;;;;;;;;;;;;;;;4894024;29;19943;-89
2023/07/01 12:07:12;;;;;;;;;;;;;;;;;;4889330;29;19932;-84
2023/07/01 12:09:40;;;;;;;;;;;;;;;;;;4906602;29;19946;-85
2023/07/01 12:12:13;;;;;;;;;;;;;;;;;;4897086;29;19932;-83
2023/07/01 12:14:41;;;;;;;;;;;;;;;;;;4904842;29;20414;-86
2023/07/01 12:17:09;;;;;;;;;;;;;;;;;;4897751;29;19931;-83
2023/07/01 12:19:36;;;;;;;;;;;;;;;;;;4905159;29;19932;-83
2023/07/01 12:22:04;;;;;;;;;;;;;;;;;;4898843;29;20308;-83
2023/07/01 12:24:32;;;;;;;;;;;;;;;;;;4911716;29;19931;-83
2023/07/01 12:26:59;;;;;;;;;;;;;;;;;;4911246;29;19936;-82
2023/07/01 12:29:27;;;;;;;;;;;;;;;;;;4902811;29;20554;-84
2023/07/01 12:31:54;;;;;;;;;;;;;;;;;;4911855;29;19927;-83
2023/07/01 12:34:22;;;;;;;;;;;;;;;;;;4891780;29;20384;-84
2023/07/01 12:36:49;;;;;;;;;;;;;;;;;;4893164;29;19931;-83
2023/07/01 12:39:17;;;;;;;;;;;;;;;;;;4909736;29;19939;-84
2023/07/01 12:41:45;;;;;;;;;;;;;;;;;;4909626;29;19935;-86
2023/07/01 12:44:12;;;;;;;;;;;;;;;;;;4910953;29;19949;-87
2023/07/01 12:46:43;;;;;;;;;;;;;;;;;;4910360;29;19928;-88
2023/07/01 12:49:10;;;;;;;;;;;;;;;;;;4908327;29;20282;-85
2023/07/01 12:51:38;;;;;;;;;;;;;;;;;;4907861;29;20269;-84
2023/07/01 12:54:05;;;;;;;;;;;;;;;;;;4892758;29;19927;-83
2023/07/01 12:56:33;;;;;;;;;;;;;;;;;;4895110;29;19927;-86
2023/07/01 12:59:01;;;;;;;;;;;;;;;;;;4889386;29;19972;-87
2023/07/01 13:01:28;;;;;;;;;;;;;;;;;;4906247;29;20419;-86
2023/07/01 13:03:56;;;;;;;;;;;;;;;;;;4895088;29;19928;-87
2023/07/01 13:06:23;;;;;;;;;;;;;;;;;;4894060;29;19935;-85
2023/07/01 13:08:56;;;;;;;;;;;;;;;;;;4892040;29;20308;-85
2023/07/01 13:11:23;;;;;;;;;;;;;;;;;;4907034;29;19927;-84
2023/07/01 13:13:51;;;;;;;;;;;;;;;;;;4897968;29;19938;-88
2023/07/01 13:16:20;;;;;;;;;;;;;;;;;;4895337;29;19928;-83
2023/07/01 13:18:47;;;;;;;;;;;;;;;;;;4895331;29;20399;-82
2023/07/01 13:21:16;;;;;;;;;;;;;;;;;;4895783;29;19935;-84
2023/07/01 13:23:44;;;;;;;;;;;;;;;;;;4906940;29;20266;-87
2023/07/01 13:26:11;;;;;;;;;;;;;;;;;;4888963;29;19931;-82
2023/07/01 13:28:39;;;;;;;;;;;;;;;;;;4906978;29;20384;-86
2023/07/01 13:31:07;;;;;;;;;;;;;;;;;;4895499;29;19928;-86
2023/07/01 13:33:34;;;;;;;;;;;;;;;;;;4907645;29;19933;-84
2023/07/01 13:36:02;;;;;;;;;;;;;;;;;;4890055;29;19928;-84
2023/07/01 13:38:30;;;;;;;;;;;;;;;;;;4895177;29;19927;-87
2023/07/01 13:40:57;;;;;;;;;;;;;;;;;;4891307;29;20376;-89
2023/07/01 13:43:25;;;;;;;;;;;;;;;;;;4907579;29;19928;-90
2023/07/01 13:45:52;;;;;;;;;;;;;;;;;;4904054;29;19935;-89
2023/07/01 13:48:20;;;;;;;;;;;;;;;;;;4902978;29;20377;-83
2023/07/01 13:50:48;;;;;;;;;;;;;;;;;;4890037;29;20574;-80
2023/07/01 13:53:15;;;;;;;;;;;;;;;;;;4890716;29;19927;-81
2023/07/01 13:55:43;;;;;;;;;;;;;;;;;;4894052;29;20377;-80
2023/07/01 13:58:10;;;;;;;;;;;;;;;;;;4889126;29;19927;-81
2023/07/01 14:00:39;;;;;;;;;;;;;;;;;;4909015;29;19927;-87
2023/07/01 14:03:06;;;;;;;;;;;;;;;;;;4911849;29;19932;-80
2023/07/01 14:05:39;;;;;;;;;;;;;;;;;;4883210;29;19932;-86
2023/07/01 14:08:07;;;;;;;;;;;;;;;;;;4885338;29;19934;-85
2023/07/01 14:10:35;;;;;;;;;;;;;;;;;;4887542;29;19935;-84
2023/07/01 14:13:03;;;;;;;;;;;;;;;;;;4900989;29;19935;-84
2023/07/01 14:15:30;;;;;;;;;;;;;;;;;;4898951;29;19942;-86
2023/07/01 14:17:58;;;;;;;;;;;;;;;;;;4884878;29;20906;-87
2023/07/01 14:20:25;;;;;;;;;;;;;;;;;;4883769;29;19934;-86
2023/07/01 14:22:53;;;;;;;;;;;;;;;;;;4899675;29;19936;-83
2023/07/01 14:25:20;;;;;;;;;;;;;;;;;;4884951;29;19936;-86
2023/07/01 14:27:48;;;;;;;;;;;;;;;;;;4888740;29;19936;-84
2023/07/01 14:30:15;;;;;;;;;;;;;;;;;;4899324;29;19935;-84
2023/07/01 14:32:43;;;;;;;;;;;;;;;;;;4898533;29;20504;-84
2023/07/01 14:35:11;;;;;;;;;;;;;;;;;;4895083;29;19930;-87
2023/07/01 14:37:46;;;;;;;;;;;;;;;;;;4887674;29;19935;-93
2023/07/01 14:40:14;;;;;;;;;;;;;;;;;;4884442;29;20053;-87
2023/07/01 14:42:41;;;;;;;;;;;;;;;;;;4877753;29;19951;-86
2023/07/01 14:45:09;;;;;;;;;;;;;;;;;;4898974;29;19935;-85
2023/07/01 14:47:36;;;;;;;;;;;;;;;;;;4883293;29;19935;-88
2023/07/01 14:50:04;;;;;;;;;;;;;;;;;;4896784;29;20424;-87
2023/07/01 14:52:36;;;;;;;;;;;;;;;;;;4897723;29;21099;-84
2023/07/01 14:55:04;;;;;;;;;;;;;;;;;;4884033;29;19935;-86
2023/07/01 14:57:31;;;;;;;;;;;;;;;;;;4882129;29;19942;-87
2023/07/01 14:59:59;;;;;;;;;;;;;;;;;;4885717;29;19928;-85
2023/07/01 15:02:26;;;;;;;;;;;;;;;;;;4883532;29;19942;-84
2023/07/01 15:04:54;;;;;;;;;;;;;;;;;;4860677;29;19940;-87
2023/07/01 15:07:22;;;;;;;;;;;;;;;;;;4882469;29;19943;-86
2023/07/01 15:09:49;;;;;;;;;;;;;;;;;;4885178;29;19935;-88
2023/07/01 15:12:17;;;;;;;;;;;;;;;;;;4892615;29;20277;-84
2023/07/01 15:14:44;;;;;;;;;;;;;;;;;;4890681;29;19935;-88
2023/07/01 15:17:12;;;;;;;;;;;;;;;;;;4886377;29;19935;-87
2023/07/01 15:19:39;;;;;;;;;;;;;;;;;;4894298;29;19946;-85
2023/07/01 15:22:07;;;;;;;;;;;;;;;;;;4904049;29;19942;-84
2023/07/01 15:24:35;;;;;;;;;;;;;;;;;;4891563;29;19927;-83
2023/07/01 15:27:04;;;;;;;;;;;;;;;;;;4901684;29;19936;-86
2023/07/01 15:29:37;;;;;;;;;;;;;;;;;;4891239;29;19958;-83
2023/07/01 15:32:04;;;;;;;;;;;;;;;;;;4887100;29;19946;-86
2023/07/01 15:34:32;;;;;;;;;;;;;;;;;;4907140;29;19946;-85
2023/07/01 15:36:59;;;;;;;;;;;;;;;;;;4903612;29;19928;-84
2023/07/01 15:39:32;;;;;;;;;;;;;;;;;;4886372;29;19935;-86
2023/07/01 15:42:00;;;;;;;;;;;;;;;;;;4889390;29;20316;-88
2023/07/01 15:44:28;;;;;;;;;;;;;;;;;;4904938;29;19946;-85
2023/07/01 15:46:56;;;;;;;;;;;;;;;;;;4893181;29;19936;-84
2023/07/01 15:49:23;;;;;;;;;;;;;;;;;;4884657;29;19942;-86
2023/07/01 15:51:51;;;;;;;;;;;;;;;;;;4900245;29;19935;-84
2023/07/01 15:54:19;;;;;;;;;;;;;;;;;;4885719;29;19935;-84
2023/07/01 15:56:46;;;;;;;;;;;;;;;;;;4903242;29;19942;-86
2023/07/01 15:59:14;;;;;;;;;;;;;;;;;;4898970;29;19936;-84
2023/07/01 16:01:41;;;;;;;;;;;;;;;;;;4888579;29;19935;-84
2023/07/01 16:04:09;;;;;;;;;;;;;;;;;;4901113;29;20616;-86
2023/07/01 16:06:36;;;;;;;;;;;;;;;;;;4868354;29;20551;-85
2023/07/01 16:09:04;;;;;;;;;;;;;;;;;;4904922;29;19943;-84
2023/07/01 16:11:32;;;;;;;;;;;;;;;;;;4884681;29;19935;-87
2023/07/01 16:13:59;;;;;;;;;;;;;;;;;;4882625;29;19942;-86
2023/07/01 16:16:27;;;;;;;;;;;;;;;;;;4892466;29;19935;-85
2023/07/01 16:18:55;;;;;;;;;;;;;;;;;;4904229;29;19935;-85
2023/07/01 16:21:22;;;;;;;;;;;;;;;;;;4893249;29;19942;-87
2023/07/01 16:23:50;;;;;;;;;;;;;;;;;;4888011;29;20289;-87
2023/07/01 16:26:17;;;;;;;;;;;;;;;;;;4882970;29;19951;-86
2023/07/01 16:28:45;;;;;;;;;;;;;;;;;;4885856;29;19942;-84
2023/07/01 16:31:13;;;;;;;;;;;;;;;;;;4894726;29;20223;-85
2023/07/01 16:33:40;;;;;;;;;;;;;;;;;;4896470;29;19938;-82
2023/07/01 16:36:08;;;;;;;;;;;;;;;;;;4884298;29;19931;-85
2023/07/01 16:38:35;;;;;;;;;;;;;;;;;;4882324;29;20785;-85
2023/07/01 16:41:04;;;;;;;;;;;;;;;;;;4895026;29;19936;-86
2023/07/01 16:43:31;;;;;;;;;;;;;;;;;;4880908;29;19935;-87
2023/07/01 16:46:04;;;;;;;;;;;;;;;;;;4892643;29;20344;-84
2023/07/01 16:48:32;;;;;;;;;;;;;;;;;;4893251;29;21818;-87
2023/07/01 16:51:01;;;;;;;;;;;;;;;;;;4882338;29;19942;-86